Brighton, CO (80601)

1:28 PM MDT on May 28, 2015 (GMT -0600)
Brighton East Farms | | Change Station
CLOSE
Current Station
Personal Weather Station
Location: Brighton, CO
Elevation: 5145 ft
Nearby Weather Stations
Active Advisory: Severe Thunderstorm Watch

Elev 5145 ft 40.00 °N, 104.76 °W | Updated 7 seconds ago

Overcast
Overcast
72.7 °F
Feels Like 76 °F
N
2.2
Wind Variable Wind from WSW
Gusts 5.4 mph

Today
High -- | Low -- °F
--% Chance of Precip.
Yesterday
High -- | Low -- °F
Precip. -- in
5:34 AM 8:18 PM
Waxing Gibbous, 78% visible
Pressure 29.84 in
Visibility 10.0 miles
Clouds Scattered Clouds 5000 ft
Scattered Clouds 14000 ft
Mostly Cloudy 22000 ft
Heat Index 76 °F
Dew Point 40 °F
Humidity 31%
Rainfall 0.00 in
Snow Depth Not available.
UV 7 out of 12
Pollen 7.50 out of 12
Air Quality Not available.
Flu Activity Sporadic
METAR KDEN 281853Z 00000KT 10SM SCT050 SCT140 BKN220 21/06 A3003 RMK AO2 SLP104 VIRGA & CB DSNT MST QDS T02110056

More Conditions Fewer Conditions

Pressure 29.84 in
Visibility 10.0 miles
Clouds Scattered Clouds 5000 ft
Scattered Clouds 14000 ft
Mostly Cloudy 22000 ft
Heat Index 76 °F
Dew Point 40 °F
Humidity 31%
Rainfall 0.00 in
Snow Depth Not available.
UV 7 out of 12
Pollen 7.50 out of 12
Air Quality Not available.
Flu Activity Sporadic
METAR KDEN 281853Z 00000KT 10SM SCT050 SCT140 BKN220 21/06 A3003 RMK AO2 SLP104 VIRGA & CB DSNT MST QDS T02110056

More Conditions Fewer Conditions

Nowcast | as of 12:12 PM MDT on May 28, 2015

Showers and thunderstorms will develop over the Front Range foothills and urban corridor through mid afternoon. The storms that form could produce Marble size hail...wind gusts to 35 mph and brief moderate to heavy rain showers...a quarter to a half inch of rain in 30 minutes...and frequent cloud to ground lightning.

×

10-Day Weather Forecast

Almanac

Astronomy

May. 28, 2015 Rise Set
Actual Time
Civil Twilight
Nautical Twilight
Astronomical Twilight
Moon
Length of Visible Light
Length of Day
Tomorrow will be .
, % of the Moon is Illuminated

Today's Extremes

State Highs State Lows

Community

WunderPhotos

Upload Photos

1,825,031 photos uploaded!

WunderBlogs® & News

Nearby

Air Quality

  Air Quality AQ Index Pollutant
Not available.

Snow Depth

Station Depth Elevation

Earthquake Activity

City Distance Mag. Time & Date
Minimum magnitude displayed is 2.5.

Coastal Water Temperatures

Place Temperature

Stations

Nearby Weather Stations

Station Location Temp. Windchill Dew Point Humidity Wind Precip. Elev Updated Type
                   
Severe Thunderstorm Watch
Statement as of 1:24 PM MDT on May 28, 2015

Severe Thunderstorm Watch 235 remains in effect until 800 PM MDT
for the following locations


Co
. Colorado counties included are

Adams Arapahoe Baca
bent Cheyenne Crowley
Elbert Kiowa Kit Carson
Las Animas Lincoln Logan
Morgan Otero Phillips
Prowers Sedgwick Washington
Weld Yuma